sensor_id;sensor_type;location;lat;lon;timestamp;pressure;altitude;pressure_sealevel;temperature;humidity
74079;BME280;62437;51.544;-3.276;2023-02-18T00:00:13;101768.93;;;6.38;78.05
74079;BME280;62437;51.544;-3.276;2023-02-18T00:02:35;101770.12;;;6.20;78.25
74079;BME280;62437;51.544;-3.276;2023-02-18T00:05:01;101751.74;;;6.92;75.64
74079;BME280;62437;51.544;-3.276;2023-02-18T00:07:26;101760.73;;;6.36;77.71
74079;BME280;62437;51.544;-3.276;2023-02-18T00:09:52;101767.42;;;6.66;77.08
74079;BME280;62437;51.544;-3.276;2023-02-18T00:12:17;101756.79;;;6.70;77.79
74079;BME280;62437;51.544;-3.276;2023-02-18T00:14:43;101762.62;;;6.43;79.33
74079;BME280;62437;51.544;-3.276;2023-02-18T00:17:09;101766.11;;;5.81;81.78
74079;BME280;62437;51.544;-3.276;2023-02-18T00:19:34;101766.72;;;6.44;77.59
74079;BME280;62437;51.544;-3.276;2023-02-18T00:22:00;101763.37;;;6.77;75.86
74079;BME280;62437;51.544;-3.276;2023-02-18T00:24:26;101773.47;;;6.76;75.65
74079;BME280;62437;51.544;-3.276;2023-02-18T00:26:52;101765.04;;;5.41;81.57
74079;BME280;62437;51.544;-3.276;2023-02-18T00:29:18;101759.85;;;7.06;75.92
74079;BME280;62437;51.544;-3.276;2023-02-18T00:31:43;101769.23;;;7.24;72.78
74079;BME280;62437;51.544;-3.276;2023-02-18T00:34:10;101768.13;;;6.74;74.44
74079;BME280;62437;51.544;-3.276;2023-02-18T00:36:34;101768.42;;;6.31;75.33
74079;BME280;62437;51.544;-3.276;2023-02-18T00:39:02;101766.34;;;6.89;75.78
74079;BME280;62437;51.544;-3.276;2023-02-18T00:41:27;101758.39;;;6.59;75.68
74079;BME280;62437;51.544;-3.276;2023-02-18T00:43:51;101760.56;;;5.15;80.91
74079;BME280;62437;51.544;-3.276;2023-02-18T00:46:17;101753.47;;;6.38;75.56
74079;BME280;62437;51.544;-3.276;2023-02-18T00:48:43;101755.76;;;6.13;78.13
74079;BME280;62437;51.544;-3.276;2023-02-18T00:51:09;101749.93;;;6.57;76.50
74079;BME280;62437;51.544;-3.276;2023-02-18T00:53:34;101748.96;;;6.92;76.19
74079;BME280;62437;51.544;-3.276;2023-02-18T00:55:59;101751.45;;;4.88;81.30
74079;BME280;62437;51.544;-3.276;2023-02-18T00:58:25;101759.48;;;5.66;78.56
74079;BME280;62437;51.544;-3.276;2023-02-18T01:00:51;101743.65;;;6.93;75.89
74079;BME280;62437;51.544;-3.276;2023-02-18T01:03:17;101757.35;;;5.82;79.56
74079;BME280;62437;51.544;-3.276;2023-02-18T01:05:42;101755.92;;;5.62;80.43
74079;BME280;62437;51.544;-3.276;2023-02-18T01:08:09;101756.94;;;5.82;79.15
74079;BME280;62437;51.544;-3.276;2023-02-18T01:10:35;101751.68;;;6.07;78.80
74079;BME280;62437;51.544;-3.276;2023-02-18T01:12:59;101750.28;;;5.72;79.98
74079;BME280;62437;51.544;-3.276;2023-02-18T01:15:25;101748.37;;;6.07;80.58
74079;BME280;62437;51.544;-3.276;2023-02-18T01:17:50;101752.33;;;5.45;81.14
74079;BME280;62437;51.544;-3.276;2023-02-18T01:20:17;101745.39;;;6.44;78.47
74079;BME280;62437;51.544;-3.276;2023-02-18T01:22:41;101738.59;;;6.14;77.35
74079;BME280;62437;51.544;-3.276;2023-02-18T01:25:09;101736.13;;;6.40;76.83
74079;BME280;62437;51.544;-3.276;2023-02-18T01:27:33;101736.91;;;6.05;77.83
74079;BME280;62437;51.544;-3.276;2023-02-18T01:29:58;101732.16;;;6.61;76.52
74079;BME280;62437;51.544;-3.276;2023-02-18T01:32:24;101734.96;;;5.66;80.61
74079;BME280;62437;51.544;-3.276;2023-02-18T01:34:50;101718.19;;;6.31;77.78
74079;BME280;62437;51.544;-3.276;2023-02-18T01:37:15;101721.56;;;6.88;74.81
74079;BME280;62437;51.544;-3.276;2023-02-18T01:39:41;101737.21;;;5.69;79.68
74079;BME280;62437;51.544;-3.276;2023-02-18T01:42:17;101723.69;;;6.73;75.50
74079;BME280;62437;51.544;-3.276;2023-02-18T01:44:34;101722.49;;;6.79;75.26
74079;BME280;62437;51.544;-3.276;2023-02-18T01:46:58;101734.15;;;6.46;76.65
74079;BME280;62437;51.544;-3.276;2023-02-18T01:49:26;101726.17;;;6.28;76.97
74079;BME280;62437;51.544;-3.276;2023-02-18T01:51:53;101726.40;;;6.94;74.47
74079;BME280;62437;51.544;-3.276;2023-02-18T01:54:19;101725.54;;;6.60;74.98
74079;BME280;62437;51.544;-3.276;2023-02-18T01:56:45;101729.40;;;6.15;76.94
74079;BME280;62437;51.544;-3.276;2023-02-18T01:59:10;101726.88;;;6.51;77.22
74079;BME280;62437;51.544;-3.276;2023-02-18T02:01:32;101718.23;;;6.43;76.06
74079;BME280;62437;51.544;-3.276;2023-02-18T02:03:58;101716.55;;;6.77;74.50
74079;BME280;62437;51.544;-3.276;2023-02-18T02:06:25;101719.04;;;6.33;77.77
74079;BME280;62437;51.544;-3.276;2023-02-18T02:08:52;101711.60;;;6.59;75.80
74079;BME280;62437;51.544;-3.276;2023-02-18T02:11:26;101717.81;;;5.37;78.96
74079;BME280;62437;51.544;-3.276;2023-02-18T02:13:56;101730.28;;;5.20;82.73
74079;BME280;62437;51.544;-3.276;2023-02-18T02:16:10;101728.79;;;5.07;84.30
74079;BME280;62437;51.544;-3.276;2023-02-18T02:18:43;101731.14;;;5.24;83.05
74079;BME280;62437;51.544;-3.276;2023-02-18T02:28:30;101724.71;;;6.21;79.00
74079;BME280;62437;51.544;-3.276;2023-02-18T02:33:19;101718.32;;;5.86;79.90
74079;BME280;62437;51.544;-3.276;2023-02-18T02:35:36;101710.25;;;6.28;78.05
74079;BME280;62437;51.544;-3.276;2023-02-18T02:38:02;101716.57;;;6.30;76.77
74079;BME280;62437;51.544;-3.276;2023-02-18T02:40:27;101700.74;;;6.05;78.38
74079;BME280;62437;51.544;-3.276;2023-02-18T02:42:57;101703.80;;;5.78;81.09
74079;BME280;62437;51.544;-3.276;2023-02-18T02:45:22;101695.50;;;6.15;79.60
74079;BME280;62437;51.544;-3.276;2023-02-18T02:47:44;101699.43;;;5.43;83.70
74079;BME280;62437;51.544;-3.276;2023-02-18T02:50:11;101684.06;;;6.06;79.31
74079;BME280;62437;51.544;-3.276;2023-02-18T02:52:32;101678.46;;;6.38;77.20
74079;BME280;62437;51.544;-3.276;2023-02-18T02:54:57;101680.83;;;5.64;81.66
74079;BME280;62437;51.544;-3.276;2023-02-18T02:57:42;101673.53;;;6.61;75.91
74079;BME280;62437;51.544;-3.276;2023-02-18T02:59:53;101676.26;;;5.76;81.02
74079;BME280;62437;51.544;-3.276;2023-02-18T03:02:24;101674.83;;;5.33;84.67
74079;BME280;62437;51.544;-3.276;2023-02-18T03:04:55;101668.32;;;5.91;80.63
74079;BME280;62437;51.544;-3.276;2023-02-18T03:07:14;101669.20;;;6.08;80.08
74079;BME280;62437;51.544;-3.276;2023-02-18T03:09:40;101653.05;;;5.98;79.41
74079;BME280;62437;51.544;-3.276;2023-02-18T03:12:02;101663.65;;;4.71;85.92
74079;BME280;62437;51.544;-3.276;2023-02-18T03:14:27;101659.79;;;5.90;81.24
74079;BME280;62437;51.544;-3.276;2023-02-18T03:16:51;101650.71;;;6.45;76.71
74079;BME280;62437;51.544;-3.276;2023-02-18T03:19:19;101659.00;;;5.15;84.98
74079;BME280;62437;51.544;-3.276;2023-02-18T03:21:42;101663.01;;;4.82;88.39
74079;BME280;62437;51.544;-3.276;2023-02-18T03:24:07;101655.25;;;5.77;82.52
74079;BME280;62437;51.544;-3.276;2023-02-18T03:26:31;101654.34;;;5.67;82.43
74079;BME280;62437;51.544;-3.276;2023-02-18T03:29:00;101655.17;;;6.46;79.05
74079;BME280;62437;51.544;-3.276;2023-02-18T03:31:25;101651.43;;;6.28;77.80
74079;BME280;62437;51.544;-3.276;2023-02-18T03:33:51;101651.05;;;4.78;85.14
74079;BME280;62437;51.544;-3.276;2023-02-18T03:36:13;101638.91;;;6.13;80.12
74079;BME280;62437;51.544;-3.276;2023-02-18T03:38:43;101638.96;;;6.35;77.92
74079;BME280;62437;51.544;-3.276;2023-02-18T03:41:05;101626.88;;;5.78;81.16
74079;BME280;62437;51.544;-3.276;2023-02-18T03:43:30;101625.74;;;5.86;80.48
74079;BME280;62437;51.544;-3.276;2023-02-18T03:45:56;101621.48;;;6.36;78.12
74079;BME280;62437;51.544;-3.276;2023-02-18T03:48:21;101621.85;;;6.25;78.10
74079;BME280;62437;51.544;-3.276;2023-02-18T03:50:47;101617.87;;;6.07;79.24
74079;BME280;62437;51.544;-3.276;2023-02-18T03:53:13;101617.92;;;5.97;79.78
74079;BME280;62437;51.544;-3.276;2023-02-18T03:55:38;101617.59;;;5.86;80.30
74079;BME280;62437;51.544;-3.276;2023-02-18T03:58:04;101616.77;;;5.69;81.29
74079;BME280;62437;51.544;-3.276;2023-02-18T04:00:29;101610.90;;;5.52;80.74
74079;BME280;62437;51.544;-3.276;2023-02-18T04:02:55;101607.37;;;5.72;82.92
74079;BME280;62437;51.544;-3.276;2023-02-18T04:05:21;101606.31;;;5.35;82.91
74079;BME280;62437;51.544;-3.276;2023-02-18T04:07:46;101606.32;;;6.03;80.31
74079;BME280;62437;51.544;-3.276;2023-02-18T04:10:12;101604.92;;;5.89;80.73
74079;BME280;62437;51.544;-3.276;2023-02-18T04:12:38;101604.20;;;5.81;80.84
74079;BME280;62437;51.544;-3.276;2023-02-18T04:15:04;101603.15;;;6.26;79.55
74079;BME280;62437;51.544;-3.276;2023-02-18T04:17:29;101596.83;;;5.74;80.37
74079;BME280;62437;51.544;-3.276;2023-02-18T04:19:55;101594.00;;;5.73;81.20
74079;BME280;62437;51.544;-3.276;2023-02-18T04:22:21;101598.72;;;6.33;80.32
74079;BME280;62437;51.544;-3.276;2023-02-18T04:24:46;101600.55;;;6.07;78.74
74079;BME280;62437;51.544;-3.276;2023-02-18T04:27:12;101596.23;;;5.29;82.16
74079;BME280;62437;51.544;-3.276;2023-02-18T04:29:38;101599.15;;;6.06;79.99
74079;BME280;62437;51.544;-3.276;2023-02-18T04:32:03;101597.46;;;5.08;86.20
74079;BME280;62437;51.544;-3.276;2023-02-18T04:34:29;101587.35;;;5.31;83.34
74079;BME280;62437;51.544;-3.276;2023-02-18T04:36:54;101587.15;;;5.02;86.92
74079;BME280;62437;51.544;-3.276;2023-02-18T04:39:20;101577.04;;;5.73;81.58
74079;BME280;62437;51.544;-3.276;2023-02-18T04:41:46;101565.06;;;5.41;82.18
74079;BME280;62437;51.544;-3.276;2023-02-18T04:44:12;101574.39;;;4.78;85.99
74079;BME280;62437;51.544;-3.276;2023-02-18T04:46:37;101563.47;;;5.26;84.71
74079;BME280;62437;51.544;-3.276;2023-02-18T04:49:03;101567.87;;;5.82;80.47
74079;BME280;62437;51.544;-3.276;2023-02-18T04:51:29;101559.56;;;5.75;80.83
74079;BME280;62437;51.544;-3.276;2023-02-18T04:53:54;101562.15;;;5.27;84.00
74079;BME280;62437;51.544;-3.276;2023-02-18T04:56:20;101564.15;;;5.13;83.81
74079;BME280;62437;51.544;-3.276;2023-02-18T04:58:46;101555.08;;;6.30;79.97
74079;BME280;62437;51.544;-3.276;2023-02-18T05:01:11;101567.60;;;5.55;83.25
74079;BME280;62437;51.544;-3.276;2023-02-18T05:03:37;101573.06;;;6.13;78.60
74079;BME280;62437;51.544;-3.276;2023-02-18T05:06:03;101558.86;;;5.69;81.41
74079;BME280;62437;51.544;-3.276;2023-02-18T05:08:29;101568.89;;;5.06;84.78
74079;BME280;62437;51.544;-3.276;2023-02-18T05:10:54;101570.22;;;5.54;82.58
74079;BME280;62437;51.544;-3.276;2023-02-18T05:13:20;101562.56;;;6.08;79.04
74079;BME280;62437;51.544;-3.276;2023-02-18T05:15:45;101571.87;;;6.36;77.42
74079;BME280;62437;51.544;-3.276;2023-02-18T05:18:11;101564.05;;;6.70;76.49
74079;BME280;62437;51.544;-3.276;2023-02-18T05:20:37;101574.01;;;5.30;85.62
74079;BME280;62437;51.544;-3.276;2023-02-18T05:23:02;101566.89;;;5.26;84.83
74079;BME280;62437;51.544;-3.276;2023-02-18T05:25:28;101567.51;;;6.22;77.68
74079;BME280;62437;51.544;-3.276;2023-02-18T05:27:54;101570.56;;;5.63;84.14
74079;BME280;62437;51.544;-3.276;2023-02-18T05:30:20;101567.38;;;5.66;82.03
74079;BME280;62437;51.544;-3.276;2023-02-18T05:32:45;101571.52;;;6.49;77.95
74079;BME280;62437;51.544;-3.276;2023-02-18T05:35:11;101563.18;;;5.65;81.79
74079;BME280;62437;51.544;-3.276;2023-02-18T05:37:36;101574.20;;;4.41;88.52
74079;BME280;62437;51.544;-3.276;2023-02-18T05:40:03;101562.13;;;5.36;84.18
74079;BME280;62437;51.544;-3.276;2023-02-18T05:42:28;101567.04;;;5.44;85.12
74079;BME280;62437;51.544;-3.276;2023-02-18T05:44:53;101559.93;;;5.43;82.23
74079;BME280;62437;51.544;-3.276;2023-02-18T05:47:19;101556.06;;;6.08;79.23
74079;BME280;62437;51.544;-3.276;2023-02-18T05:49:45;101555.41;;;5.47;84.32
74079;BME280;62437;51.544;-3.276;2023-02-18T05:52:10;101548.18;;;6.06;81.47
74079;BME280;62437;51.544;-3.276;2023-02-18T05:54:37;101548.21;;;6.03;82.69
74079;BME280;62437;51.544;-3.276;2023-02-18T05:57:02;101546.62;;;5.16;85.39
74079;BME280;62437;51.544;-3.276;2023-02-18T05:59:27;101540.67;;;6.30;78.63
74079;BME280;62437;51.544;-3.276;2023-02-18T06:01:53;101539.01;;;6.54;77.93
74079;BME280;62437;51.544;-3.276;2023-02-18T06:04:18;101540.96;;;6.18;77.49
74079;BME280;62437;51.544;-3.276;2023-02-18T06:06:44;101542.96;;;6.70;76.48
74079;BME280;62437;51.544;-3.276;2023-02-18T06:09:10;101531.44;;;5.97;79.91
74079;BME280;62437;51.544;-3.276;2023-02-18T06:11:35;101545.70;;;6.26;77.76
74079;BME280;62437;51.544;-3.276;2023-02-18T06:14:01;101542.12;;;6.63;77.01
74079;BME280;62437;51.544;-3.276;2023-02-18T06:16:27;101542.50;;;7.07;74.58
74079;BME280;62437;51.544;-3.276;2023-02-18T06:18:53;101543.24;;;6.89;76.85
74079;BME280;62437;51.544;-3.276;2023-02-18T06:21:18;101534.95;;;5.91;83.05
74079;BME280;62437;51.544;-3.276;2023-02-18T06:23:44;101540.07;;;5.89;82.26
74079;BME280;62437;51.544;-3.276;2023-02-18T06:26:10;101527.97;;;6.06;79.68
74079;BME280;62437;51.544;-3.276;2023-02-18T06:28:35;101529.27;;;5.78;80.25
74079;BME280;62437;51.544;-3.276;2023-02-18T06:31:01;101526.36;;;6.60;76.54
74079;BME280;62437;51.544;-3.276;2023-02-18T06:33:26;101524.59;;;6.04;80.94
74079;BME280;62437;51.544;-3.276;2023-02-18T06:35:54;101521.70;;;5.98;81.22
74079;BME280;62437;51.544;-3.276;2023-02-18T06:38:18;101519.56;;;5.80;82.40
74079;BME280;62437;51.544;-3.276;2023-02-18T06:40:46;101523.37;;;5.94;80.33
74079;BME280;62437;51.544;-3.276;2023-02-18T06:43:09;101519.76;;;6.14;79.74
74079;BME280;62437;51.544;-3.276;2023-02-18T06:45:35;101521.48;;;5.29;84.56
74079;BME280;62437;51.544;-3.276;2023-02-18T06:48:00;101523.95;;;6.43;76.84
74079;BME280;62437;51.544;-3.276;2023-02-18T06:50:26;101522.30;;;6.77;74.61
74079;BME280;62437;51.544;-3.276;2023-02-18T06:52:52;101527.12;;;7.01;75.72
74079;BME280;62437;51.544;-3.276;2023-02-18T06:55:17;101537.49;;;6.11;79.22
74079;BME280;62437;51.544;-3.276;2023-02-18T06:57:43;101529.04;;;5.10;86.15
74079;BME280;62437;51.544;-3.276;2023-02-18T07:00:09;101531.99;;;5.89;81.01
74079;BME280;62437;51.544;-3.276;2023-02-18T07:02:34;101538.88;;;6.38;78.01
74079;BME280;62437;51.544;-3.276;2023-02-18T07:05:00;101546.92;;;6.60;76.98
74079;BME280;62437;51.544;-3.276;2023-02-18T07:07:26;101551.48;;;7.14;75.08
74079;BME280;62437;51.544;-3.276;2023-02-18T07:09:51;101552.94;;;6.76;76.19
74079;BME280;62437;51.544;-3.276;2023-02-18T07:12:17;101559.33;;;6.67;77.62
74079;BME280;62437;51.544;-3.276;2023-02-18T07:14:43;101557.17;;;5.96;79.22
74079;BME280;62437;51.544;-3.276;2023-02-18T07:17:08;101554.29;;;6.50;76.99
74079;BME280;62437;51.544;-3.276;2023-02-18T07:19:34;101551.58;;;4.92;86.27
74079;BME280;62437;51.544;-3.276;2023-02-18T07:22:00;101555.82;;;5.93;81.49
74079;BME280;62437;51.544;-3.276;2023-02-18T07:24:25;101565.23;;;6.85;76.73
74079;BME280;62437;51.544;-3.276;2023-02-18T07:26:51;101555.71;;;6.03;78.87
74079;BME280;62437;51.544;-3.276;2023-02-18T07:29:17;101564.20;;;6.58;77.77
74079;BME280;62437;51.544;-3.276;2023-02-18T07:31:42;101557.98;;;6.19;78.52
74079;BME280;62437;51.544;-3.276;2023-02-18T07:34:08;101564.90;;;5.13;85.59
74079;BME280;62437;51.544;-3.276;2023-02-18T07:36:34;101565.96;;;4.91;88.52
74079;BME280;62437;51.544;-3.276;2023-02-18T07:38:59;101569.18;;;6.06;78.83
74079;BME280;62437;51.544;-3.276;2023-02-18T07:41:25;101566.41;;;6.28;79.85
74079;BME280;62437;51.544;-3.276;2023-02-18T07:43:51;101562.13;;;6.24;79.84
74079;BME280;62437;51.544;-3.276;2023-02-18T07:46:17;101563.34;;;6.13;80.57
74079;BME280;62437;51.544;-3.276;2023-02-18T07:48:42;101576.16;;;5.47;83.82
74079;BME280;62437;51.544;-3.276;2023-02-18T07:51:09;101578.73;;;6.11;82.86
74079;BME280;62437;51.544;-3.276;2023-02-18T07:53:33;101588.05;;;6.70;76.94
74079;BME280;62437;51.544;-3.276;2023-02-18T07:55:59;101583.52;;;7.30;73.84
74079;BME280;62437;51.544;-3.276;2023-02-18T07:58:26;101588.30;;;6.72;75.24
74079;BME280;62437;51.544;-3.276;2023-02-18T08:00:51;101596.33;;;6.74;77.83
74079;BME280;62437;51.544;-3.276;2023-02-18T08:03:17;101598.68;;;6.22;80.10
74079;BME280;62437;51.544;-3.276;2023-02-18T08:05:42;101597.62;;;6.81;77.48
74079;BME280;62437;51.544;-3.276;2023-02-18T08:08:11;101598.48;;;6.65;77.74
74079;BME280;62437;51.544;-3.276;2023-02-18T08:10:33;101598.48;;;6.92;74.93
74079;BME280;62437;51.544;-3.276;2023-02-18T08:12:59;101608.31;;;6.61;76.53
74079;BME280;62437;51.544;-3.276;2023-02-18T08:15:24;101610.07;;;6.54;80.35
74079;BME280;62437;51.544;-3.276;2023-02-18T08:17:50;101605.11;;;7.13;73.26
74079;BME280;62437;51.544;-3.276;2023-02-18T08:20:16;101607.18;;;7.09;74.73
74079;BME280;62437;51.544;-3.276;2023-02-18T08:22:41;101608.92;;;7.13;72.70
74079;BME280;62437;51.544;-3.276;2023-02-18T08:25:07;101617.48;;;7.38;73.37
74079;BME280;62437;51.544;-3.276;2023-02-18T08:27:33;101618.73;;;6.61;77.62
74079;BME280;62437;51.544;-3.276;2023-02-18T08:29:58;101617.29;;;7.05;73.94
74079;BME280;62437;51.544;-3.276;2023-02-18T08:32:26;101616.99;;;6.98;74.89
74079;BME280;62437;51.544;-3.276;2023-02-18T08:34:50;101624.29;;;5.59;84.40
74079;BME280;62437;51.544;-3.276;2023-02-18T08:37:15;101617.86;;;6.17;81.73
74079;BME280;62437;51.544;-3.276;2023-02-18T08:39:41;101626.82;;;6.45;78.99
74079;BME280;62437;51.544;-3.276;2023-02-18T08:42:07;101627.16;;;6.67;76.27
74079;BME280;62437;51.544;-3.276;2023-02-18T08:44:33;101635.40;;;5.47;84.25
74079;BME280;62437;51.544;-3.276;2023-02-18T08:46:58;101633.49;;;6.95;75.35
74079;BME280;62437;51.544;-3.276;2023-02-18T08:49:24;101634.30;;;7.21;76.96
74079;BME280;62437;51.544;-3.276;2023-02-18T08:51:50;101637.37;;;7.32;72.85
74079;BME280;62437;51.544;-3.276;2023-02-18T08:54:15;101639.88;;;7.47;72.02
74079;BME280;62437;51.544;-3.276;2023-02-18T08:56:41;101637.77;;;7.25;72.33
74079;BME280;62437;51.544;-3.276;2023-02-18T08:59:07;101651.98;;;6.18;81.67
74079;BME280;62437;51.544;-3.276;2023-02-18T09:01:32;101645.82;;;6.80;74.54
74079;BME280;62437;51.544;-3.276;2023-02-18T09:03:58;101645.06;;;7.07;74.99
74079;BME280;62437;51.544;-3.276;2023-02-18T09:06:24;101643.22;;;7.19;72.50
74079;BME280;62437;51.544;-3.276;2023-02-18T09:08:49;101645.97;;;6.31;76.46
74079;BME280;62437;51.544;-3.276;2023-02-18T09:11:16;101648.70;;;6.12;78.50
74079;BME280;62437;51.544;-3.276;2023-02-18T09:13:41;101648.53;;;6.99;74.13
74079;BME280;62437;51.544;-3.276;2023-02-18T09:16:09;101643.33;;;7.03;74.11
74079;BME280;62437;51.544;-3.276;2023-02-18T09:18:33;101644.40;;;6.88;74.92
74079;BME280;62437;51.544;-3.276;2023-02-18T09:20:59;101644.65;;;6.13;79.51
74079;BME280;62437;51.544;-3.276;2023-02-18T09:23:24;101649.51;;;6.58;82.27
74079;BME280;62437;51.544;-3.276;2023-02-18T09:25:49;101651.12;;;6.78;75.37
74079;BME280;62437;51.544;-3.276;2023-02-18T09:28:15;101652.21;;;6.76;78.49
74079;BME280;62437;51.544;-3.276;2023-02-18T09:30:40;101648.67;;;6.85;75.73
74079;BME280;62437;51.544;-3.276;2023-02-18T09:33:06;101640.31;;;6.52;78.04
74079;BME280;62437;51.544;-3.276;2023-02-18T09:35:32;101641.25;;;6.43;78.86
74079;BME280;62437;51.544;-3.276;2023-02-18T09:37:57;101634.51;;;6.04;80.81
74079;BME280;62437;51.544;-3.276;2023-02-18T09:40:25;101632.60;;;6.45;78.92
74079;BME280;62437;51.544;-3.276;2023-02-18T09:42:49;101631.71;;;6.47;81.30
74079;BME280;62437;51.544;-3.276;2023-02-18T09:45:15;101628.57;;;6.01;83.90
74079;BME280;62437;51.544;-3.276;2023-02-18T09:47:42;101634.76;;;6.18;79.98
74079;BME280;62437;51.544;-3.276;2023-02-18T09:50:11;101638.92;;;6.74;77.40
74079;BME280;62437;51.544;-3.276;2023-02-18T09:52:33;101643.39;;;6.32;83.88
74079;BME280;62437;51.544;-3.276;2023-02-18T09:54:57;101627.20;;;5.62;85.57
74079;BME280;62437;51.544;-3.276;2023-02-18T09:57:26;101635.06;;;5.87;84.22
74079;BME280;62437;51.544;-3.276;2023-02-18T09:59:55;101639.42;;;6.45;80.34
74079;BME280;62437;51.544;-3.276;2023-02-18T10:02:14;101633.31;;;6.16;83.23
74079;BME280;62437;51.544;-3.276;2023-02-18T10:04:42;101632.31;;;5.53;88.04
74079;BME280;62437;51.544;-3.276;2023-02-18T10:07:07;101629.73;;;5.66;86.39
74079;BME280;62437;51.544;-3.276;2023-02-18T10:09:34;101626.01;;;6.17;82.78
74079;BME280;62437;51.544;-3.276;2023-02-18T10:12:01;101627.89;;;5.86;84.13
74079;BME280;62437;51.544;-3.276;2023-02-18T10:14:22;101627.21;;;6.33;84.44
74079;BME280;62437;51.544;-3.276;2023-02-18T10:16:49;101627.66;;;6.84;76.64
74079;BME280;62437;51.544;-3.276;2023-02-18T10:19:21;101618.93;;;7.00;76.46
74079;BME280;62437;51.544;-3.276;2023-02-18T10:21:39;101620.30;;;5.80;82.94
74079;BME280;62437;51.544;-3.276;2023-02-18T10:24:12;101625.30;;;6.52;84.10
74079;BME280;62437;51.544;-3.276;2023-02-18T10:26:33;101628.83;;;6.47;84.00
74079;BME280;62437;51.544;-3.276;2023-02-18T10:28:56;101621.08;;;6.76;77.47
74079;BME280;62437;51.544;-3.276;2023-02-18T10:31:27;101627.76;;;6.02;85.14
74079;BME280;62437;51.544;-3.276;2023-02-18T10:33:52;101630.15;;;6.58;79.53
74079;BME280;62437;51.544;-3.276;2023-02-18T10:36:23;101625.12;;;7.18;77.64
74079;BME280;62437;51.544;-3.276;2023-02-18T10:38:45;101620.07;;;6.95;77.24
74079;BME280;62437;51.544;-3.276;2023-02-18T10:41:11;101622.88;;;5.36;89.55
74079;BME280;62437;51.544;-3.276;2023-02-18T10:43:35;101621.91;;;6.20;82.11
74079;BME280;62437;51.544;-3.276;2023-02-18T10:46:02;101628.00;;;6.28;83.16
74079;BME280;62437;51.544;-3.276;2023-02-18T10:48:37;101623.57;;;6.78;81.04
74079;BME280;62437;51.544;-3.276;2023-02-18T10:50:47;101633.12;;;6.78;77.93
74079;BME280;62437;51.544;-3.276;2023-02-18T10:53:15;101627.90;;;6.04;86.13
74079;BME280;62437;51.544;-3.276;2023-02-18T10:55:40;101631.19;;;6.14;86.81
74079;BME280;62437;51.544;-3.276;2023-02-18T11:00:34;101637.51;;;7.00;77.01
74079;BME280;62437;51.544;-3.276;2023-02-18T11:03:09;101644.27;;;6.10;84.52
74079;BME280;62437;51.544;-3.276;2023-02-18T11:05:23;101643.95;;;7.68;75.01
74079;BME280;62437;51.544;-3.276;2023-02-18T11:07:48;101644.85;;;5.75;85.98
74079;BME280;62437;51.544;-3.276;2023-02-18T11:10:16;101646.31;;;7.00;79.27
74079;BME280;62437;51.544;-3.276;2023-02-18T11:12:43;101653.84;;;6.40;83.23
74079;BME280;62437;51.544;-3.276;2023-02-18T11:17:31;101650.64;;;7.16;81.27
74079;BME280;62437;51.544;-3.276;2023-02-18T11:19:56;101647.23;;;6.80;79.10
74079;BME280;62437;51.544;-3.276;2023-02-18T11:22:23;101654.49;;;6.24;85.44
74079;BME280;62437;51.544;-3.276;2023-02-18T11:24:47;101653.50;;;6.79;77.31
74079;BME280;62437;51.544;-3.276;2023-02-18T11:27:19;101655.81;;;6.83;78.56
74079;BME280;62437;51.544;-3.276;2023-02-18T11:29:37;101652.25;;;7.06;78.08
74079;BME280;62437;51.544;-3.276;2023-02-18T11:32:03;101652.21;;;6.97;78.62
74079;BME280;62437;51.544;-3.276;2023-02-18T11:34:30;101647.97;;;5.89;87.92
74079;BME280;62437;51.544;-3.276;2023-02-18T11:36:54;101638.43;;;6.83;80.40
74079;BME280;62437;51.544;-3.276;2023-02-18T11:39:23;101630.81;;;6.47;82.02
74079;BME280;62437;51.544;-3.276;2023-02-18T11:41:47;101642.27;;;6.95;82.63
74079;BME280;62437;51.544;-3.276;2023-02-18T11:44:18;101638.96;;;6.08;85.45
74079;BME280;62437;51.544;-3.276;2023-02-18T11:46:37;101640.41;;;6.28;85.85
74079;BME280;62437;51.544;-3.276;2023-02-18T11:49:11;101641.13;;;6.78;77.93
74079;BME280;62437;51.544;-3.276;2023-02-18T11:51:34;101648.57;;;6.20;87.23
74079;BME280;62437;51.544;-3.276;2023-02-18T11:53:57;101640.10;;;6.55;84.35
74079;BME280;62437;51.544;-3.276;2023-02-18T11:56:19;101628.20;;;7.27;76.56
74079;BME280;62437;51.544;-3.276;2023-02-18T11:58:47;101635.49;;;7.35;77.61
74079;BME280;62437;51.544;-3.276;2023-02-18T12:01:17;101638.56;;;6.44;86.51
74079;BME280;62437;51.544;-3.276;2023-02-18T12:03:40;101638.08;;;6.39;85.42
74079;BME280;62437;51.544;-3.276;2023-02-18T12:06:04;101639.40;;;5.75;88.68
74079;BME280;62437;51.544;-3.276;2023-02-18T12:08:29;101633.28;;;6.30;83.51
74079;BME280;62437;51.544;-3.276;2023-02-18T12:10:55;101631.79;;;6.02;88.27
74079;BME280;62437;51.544;-3.276;2023-02-18T12:13:24;101632.16;;;5.65;90.08
74079;BME280;62437;51.544;-3.276;2023-02-18T12:15:51;101630.85;;;5.93;86.92
74079;BME280;62437;51.544;-3.276;2023-02-18T12:18:20;101630.92;;;6.01;86.62
74079;BME280;62437;51.544;-3.276;2023-02-18T12:20:53;101632.81;;;6.04;84.61
74079;BME280;62437;51.544;-3.276;2023-02-18T12:23:05;101623.58;;;5.65;89.11
74079;BME280;62437;51.544;-3.276;2023-02-18T12:25:36;101625.43;;;6.33;83.08
74079;BME280;62437;51.544;-3.276;2023-02-18T12:28:02;101635.35;;;6.09;83.68
74079;BME280;62437;51.544;-3.276;2023-02-18T12:30:30;101622.83;;;6.38;83.03
74079;BME280;62437;51.544;-3.276;2023-02-18T12:32:48;101623.26;;;6.14;86.63
74079;BME280;62437;51.544;-3.276;2023-02-18T12:35:32;101626.45;;;6.15;84.72
74079;BME280;62437;51.544;-3.276;2023-02-18T12:37:48;101608.95;;;6.45;83.90
74079;BME280;62437;51.544;-3.276;2023-02-18T12:42:37;101601.36;;;6.59;82.08
74079;BME280;62437;51.544;-3.276;2023-02-18T12:45:03;101604.31;;;7.16;78.82
74079;BME280;62437;51.544;-3.276;2023-02-18T12:47:30;101599.79;;;5.88;88.10
74079;BME280;62437;51.544;-3.276;2023-02-18T12:50:02;101596.56;;;6.00;86.72
74079;BME280;62437;51.544;-3.276;2023-02-18T12:52:19;101588.15;;;6.42;83.62
74079;BME280;62437;51.544;-3.276;2023-02-18T12:54:47;101590.37;;;5.86;88.17
74079;BME280;62437;51.544;-3.276;2023-02-18T12:57:11;101584.00;;;6.46;85.26